createdAt,value
2018-07-16T00:01:06.288Z,3.70
2018-07-16T00:03:33.518Z,3.20
2018-07-16T00:06:00.800Z,3.57
2018-07-16T00:08:27.972Z,3.70
2018-07-16T00:10:55.146Z,4.00
2018-07-16T00:13:22.328Z,3.90
2018-07-16T00:15:49.460Z,3.97
2018-07-16T00:18:16.630Z,4.23
2018-07-16T00:20:43.767Z,3.50
2018-07-16T00:23:10.979Z,3.23
2018-07-16T00:25:38.151Z,3.23
2018-07-16T00:28:05.346Z,2.33
2018-07-16T00:30:32.665Z,2.80
2018-07-16T00:32:59.885Z,2.90
2018-07-16T00:35:27.028Z,2.90
2018-07-16T00:37:54.155Z,2.93
2018-07-16T00:40:21.309Z,3.20
2018-07-16T00:42:48.437Z,2.93
2018-07-16T00:45:15.559Z,3.10
2018-07-16T00:47:42.706Z,3.10
2018-07-16T00:50:09.859Z,3.17
2018-07-16T00:52:37.025Z,2.97
2018-07-16T00:55:04.263Z,2.93
2018-07-16T00:57:31.426Z,3.10
2018-07-16T00:59:58.555Z,3.20
2018-07-16T01:02:25.731Z,2.87
2018-07-16T01:04:52.900Z,2.50
2018-07-16T01:07:20.095Z,2.97
2018-07-16T01:09:47.230Z,3.30
2018-07-16T01:12:14.413Z,2.77
2018-07-16T01:14:41.546Z,2.80
2018-07-16T01:17:08.688Z,3.60
2018-07-16T01:19:35.961Z,3.10
2018-07-16T01:22:03.145Z,2.90
2018-07-16T01:24:30.332Z,2.77
2018-07-16T01:26:57.476Z,3.10
2018-07-16T01:29:24.612Z,3.00
2018-07-16T01:31:51.935Z,3.17
2018-07-16T01:34:19.082Z,2.87
2018-07-16T01:36:46.207Z,3.00
2018-07-16T01:39:13.356Z,3.00
2018-07-16T01:41:40.468Z,3.10
2018-07-16T01:44:07.591Z,2.90
2018-07-16T01:46:34.770Z,3.20
2018-07-16T01:49:01.991Z,2.83
2018-07-16T01:51:29.160Z,2.60
2018-07-16T01:53:56.287Z,3.07
2018-07-16T01:56:23.405Z,3.03
2018-07-16T01:58:50.585Z,3.13
2018-07-16T02:01:17.721Z,2.83
2018-07-16T02:03:44.837Z,2.90
2018-07-16T02:06:11.959Z,3.20
2018-07-16T02:08:39.077Z,2.90
2018-07-16T02:11:06.197Z,2.83
2018-07-16T02:13:33.391Z,2.83
2018-07-16T02:16:00.728Z,3.10
2018-07-16T02:18:27.865Z,2.63
2018-07-16T02:20:55.006Z,3.20
2018-07-16T02:23:22.153Z,3.50
2018-07-16T02:25:49.325Z,3.17
2018-07-16T02:28:16.459Z,2.90
2018-07-16T02:30:43.618Z,3.47
2018-07-16T02:33:11.957Z,2.93
2018-07-16T02:35:39.187Z,2.80
2018-07-16T02:38:06.363Z,3.10
2018-07-16T02:40:33.581Z,3.07
2018-07-16T02:43:00.806Z,3.23
2018-07-16T02:45:27.974Z,2.83
2018-07-16T02:47:55.298Z,2.90
2018-07-16T02:50:22.431Z,3.10
2018-07-16T02:52:49.562Z,2.97
2018-07-16T02:55:16.924Z,3.50
2018-07-16T02:57:44.063Z,3.40
2018-07-16T03:00:11.245Z,3.67
2018-07-16T03:02:38.933Z,3.37
2018-07-16T03:05:06.590Z,3.13
2018-07-16T03:07:34.259Z,3.20
2018-07-16T03:10:01.460Z,3.33
2018-07-16T03:12:28.622Z,3.70
2018-07-16T03:14:56.201Z,3.47
2018-07-16T03:17:23.347Z,3.30
2018-07-16T03:19:50.686Z,3.33
2018-07-16T03:22:17.798Z,3.00
2018-07-16T03:24:44.937Z,3.10
2018-07-16T03:27:12.113Z,2.80
2018-07-16T03:29:39.294Z,2.83
2018-07-16T03:32:06.468Z,2.97
2018-07-16T03:34:34.181Z,3.40
2018-07-16T03:37:01.436Z,3.47
2018-07-16T03:39:28.572Z,3.30
2018-07-16T03:41:55.795Z,3.27
2018-07-16T03:44:22.912Z,2.63
2018-07-16T03:46:50.045Z,3.10
2018-07-16T03:49:17.174Z,3.03
2018-07-16T03:51:44.358Z,3.27
2018-07-16T03:54:11.554Z,3.13
2018-07-16T03:56:38.674Z,3.47
2018-07-16T03:59:05.916Z,3.27
2018-07-16T04:01:33.259Z,3.53
2018-07-16T04:04:00.385Z,3.20
2018-07-16T04:06:27.502Z,3.10
2018-07-16T04:08:54.669Z,3.33
2018-07-16T04:11:21.846Z,3.10
2018-07-16T04:13:48.950Z,3.40
2018-07-16T04:16:16.103Z,2.80
2018-07-16T04:18:43.241Z,3.60
2018-07-16T04:21:10.344Z,3.57
2018-07-16T04:23:37.509Z,3.63
2018-07-16T04:26:04.735Z,3.20
2018-07-16T04:28:31.995Z,3.13
2018-07-16T04:30:59.386Z,3.13
2018-07-16T04:33:26.520Z,3.10
2018-07-16T04:35:53.633Z,3.57
2018-07-16T04:38:20.772Z,3.13
2018-07-16T04:40:47.889Z,3.20
2018-07-16T04:43:15.045Z,2.87
2018-07-16T04:45:42.190Z,3.33
2018-07-16T04:48:09.384Z,3.37
2018-07-16T04:50:36.498Z,3.10
2018-07-16T04:53:03.713Z,3.17
2018-07-16T04:55:30.982Z,3.27
2018-07-16T04:57:58.109Z,3.13
2018-07-16T05:00:25.241Z,3.23
2018-07-16T05:02:52.463Z,3.23
2018-07-16T05:05:19.636Z,3.00
2018-07-16T05:07:46.774Z,2.57
2018-07-16T05:12:47.717Z,3.23
2018-07-16T05:15:14.882Z,3.40
2018-07-16T05:17:41.981Z,3.27
2018-07-16T05:20:09.258Z,3.63
2018-07-16T05:22:36.409Z,3.47
2018-07-16T05:25:03.594Z,3.33
2018-07-16T05:27:30.833Z,3.60
2018-07-16T05:29:58.029Z,3.60
2018-07-16T05:32:25.347Z,3.53
2018-07-16T05:34:52.289Z,3.87
2018-07-16T05:37:19.585Z,4.20
2018-07-16T05:39:46.718Z,3.50
2018-07-16T05:42:13.905Z,3.92
2018-07-16T05:44:41.022Z,3.70
2018-07-16T05:47:08.154Z,3.90
2018-07-16T05:49:35.326Z,4.05
2018-07-16T05:52:02.508Z,3.80
2018-07-16T05:54:29.676Z,3.80
2018-07-16T05:56:56.804Z,4.72
2018-07-16T05:59:23.952Z,3.67
2018-07-16T06:01:51.378Z,3.62
2018-07-16T06:04:18.517Z,3.40
2018-07-16T06:06:45.659Z,4.65
2018-07-16T06:09:12.795Z,4.47
2018-07-16T06:11:39.929Z,3.95
2018-07-16T06:14:07.100Z,4.03
2018-07-16T06:16:34.385Z,4.15
2018-07-16T06:19:01.574Z,3.62
2018-07-16T06:21:28.735Z,4.40
2018-07-16T06:23:55.859Z,4.55
2018-07-16T06:26:22.998Z,3.85
2018-07-16T06:28:50.116Z,3.27
2018-07-16T06:31:17.235Z,4.53
2018-07-16T06:33:44.403Z,4.40
2018-07-16T06:36:11.541Z,3.50
2018-07-16T06:38:38.673Z,3.25
2018-07-16T06:41:06.356Z,3.30
2018-07-16T06:43:33.146Z,3.25
2018-07-16T06:46:00.514Z,4.00
2018-07-16T06:48:27.611Z,3.00
2018-07-16T06:50:54.774Z,3.40
2018-07-16T06:53:21.901Z,3.05
2018-07-16T06:55:49.074Z,3.05
2018-07-16T06:58:16.193Z,3.33
2018-07-16T07:00:43.309Z,3.70
2018-07-16T07:03:10.666Z,3.25
2018-07-16T07:05:38.231Z,3.08
2018-07-16T07:08:05.644Z,3.33
2018-07-16T07:10:32.801Z,3.10
2018-07-16T07:13:00.072Z,3.17
2018-07-16T07:15:27.251Z,2.80
2018-07-16T07:17:54.403Z,2.35
2018-07-16T07:20:21.559Z,3.22
2018-07-16T07:22:48.692Z,2.60
2018-07-16T07:25:16.047Z,2.87
2018-07-16T07:27:43.142Z,3.10
2018-07-16T07:30:10.306Z,3.20
2018-07-16T07:32:37.457Z,3.22
2018-07-16T07:35:04.711Z,2.85
2018-07-16T07:37:31.911Z,3.25
2018-07-16T07:39:59.047Z,2.72
2018-07-16T07:42:26.281Z,3.22
2018-07-16T07:44:53.427Z,2.70
2018-07-16T07:47:20.674Z,2.72
2018-07-16T07:49:48.066Z,2.70
2018-07-16T07:52:15.201Z,2.90
2018-07-16T07:54:42.601Z,2.55
2018-07-16T07:57:09.573Z,3.35
2018-07-16T07:59:36.718Z,2.50
2018-07-16T08:02:03.978Z,2.37
2018-07-16T08:04:31.331Z,2.15
2018-07-16T08:07:04.228Z,2.33
2018-07-16T08:09:31.449Z,3.00
2018-07-16T08:11:58.683Z,2.80
2018-07-16T08:14:25.806Z,2.60
2018-07-16T08:16:52.950Z,2.92
2018-07-16T08:19:20.675Z,2.40
2018-07-16T08:21:47.837Z,2.20
2018-07-16T08:24:15.057Z,3.02
2018-07-16T08:26:42.260Z,2.37
2018-07-16T08:29:09.410Z,2.70
2018-07-16T08:31:36.579Z,2.42
2018-07-16T08:34:03.824Z,2.10
2018-07-16T08:36:31.210Z,2.65
2018-07-16T08:38:58.413Z,2.52
2018-07-16T08:41:25.674Z,2.67
2018-07-16T08:43:52.914Z,3.30
2018-07-16T08:46:20.097Z,3.77
2018-07-16T08:48:47.194Z,4.65
2018-07-16T08:51:14.314Z,2.85
2018-07-16T08:53:41.577Z,3.10
2018-07-16T08:56:08.742Z,2.92
2018-07-16T08:58:36.127Z,2.72
2018-07-16T09:01:03.374Z,3.10
2018-07-16T09:03:30.556Z,2.70
2018-07-16T09:06:04.297Z,2.67
2018-07-16T09:08:32.267Z,2.67
2018-07-16T09:10:59.479Z,3.00
2018-07-16T09:13:26.690Z,2.75
2018-07-16T09:15:53.657Z,2.40
2018-07-16T09:18:20.793Z,2.80
2018-07-16T09:20:47.981Z,2.50
2018-07-16T09:23:15.273Z,2.40
2018-07-16T09:25:42.406Z,3.52
2018-07-16T09:28:09.555Z,3.33
2018-07-16T09:30:36.737Z,2.80
2018-07-16T09:33:03.977Z,3.37
2018-07-16T09:35:31.297Z,3.25
2018-07-16T09:37:58.488Z,3.25
2018-07-16T09:40:25.710Z,2.83
2018-07-16T09:42:52.842Z,2.87
2018-07-16T09:45:20.010Z,2.80
2018-07-16T09:47:47.115Z,2.70
2018-07-16T09:50:14.241Z,3.00
2018-07-16T09:52:41.378Z,2.85
2018-07-16T09:55:08.531Z,2.75
2018-07-16T09:57:35.734Z,3.00
2018-07-16T10:00:03.298Z,3.02
2018-07-16T10:02:30.649Z,3.02
2018-07-16T10:04:57.783Z,3.02
2018-07-16T10:07:24.904Z,3.25
2018-07-16T10:09:52.015Z,3.15
2018-07-16T10:12:19.137Z,3.30
2018-07-16T10:14:46.267Z,2.60
2018-07-16T10:17:13.388Z,2.85
2018-07-16T10:19:40.515Z,3.60
2018-07-16T10:22:07.661Z,2.77
2018-07-16T10:24:34.886Z,3.00
2018-07-16T10:27:02.210Z,3.08
2018-07-16T10:29:29.395Z,3.00
2018-07-16T10:31:56.594Z,3.12
2018-07-16T10:34:23.970Z,3.27
2018-07-16T10:36:51.246Z,3.27
2018-07-16T10:39:18.461Z,2.92
2018-07-16T10:41:45.534Z,2.80
2018-07-16T10:44:12.666Z,2.77
2018-07-16T10:46:39.799Z,2.80
2018-07-16T10:49:06.933Z,2.33
2018-07-16T10:51:34.150Z,3.12
2018-07-16T10:54:01.372Z,2.85
2018-07-16T10:56:28.478Z,2.55
2018-07-16T10:58:55.613Z,2.52
2018-07-16T11:01:22.734Z,2.83
2018-07-16T11:03:49.850Z,3.10
2018-07-16T11:06:21.521Z,2.80
2018-07-16T11:08:49.474Z,2.87
2018-07-16T11:11:16.604Z,2.87
2018-07-16T11:13:43.722Z,3.15
2018-07-16T11:16:11.037Z,2.70
2018-07-16T11:18:38.158Z,2.90
2018-07-16T11:21:05.472Z,2.70
2018-07-16T11:23:32.646Z,2.17
2018-07-16T11:25:59.822Z,2.37
2018-07-16T11:28:26.941Z,2.67
2018-07-16T11:30:54.062Z,2.72
2018-07-16T11:33:21.519Z,2.47
2018-07-16T11:35:48.684Z,2.60
2018-07-16T11:38:15.897Z,2.60
2018-07-16T11:40:43.109Z,2.37
2018-07-16T11:43:10.190Z,2.67
2018-07-16T11:45:37.397Z,2.40
2018-07-16T11:48:04.741Z,2.40
2018-07-16T11:50:31.942Z,2.33
2018-07-16T11:52:59.082Z,1.90
2018-07-16T11:55:26.244Z,2.10
2018-07-16T11:57:53.374Z,4.33
2018-07-16T12:00:20.519Z,2.30
2018-07-16T12:02:47.648Z,2.30
2018-07-16T12:05:14.826Z,2.35
2018-07-16T12:07:41.925Z,2.30
2018-07-16T12:10:09.214Z,2.60
2018-07-16T12:12:36.609Z,3.02
2018-07-16T12:15:03.764Z,2.77
2018-07-16T12:17:30.934Z,2.42
2018-07-16T12:19:58.068Z,2.37
2018-07-16T12:22:25.230Z,2.50
2018-07-16T12:24:52.344Z,2.70
2018-07-16T12:27:19.458Z,2.45
2018-07-16T12:29:46.581Z,2.60
2018-07-16T12:32:13.942Z,2.70
2018-07-16T12:34:41.082Z,3.00
2018-07-16T12:37:08.213Z,2.70
2018-07-16T12:39:35.374Z,2.77
2018-07-16T12:42:02.527Z,2.27
2018-07-16T12:44:29.678Z,2.55
2018-07-16T12:46:56.886Z,2.67
2018-07-16T12:49:23.971Z,3.00
2018-07-16T12:51:51.095Z,2.58
2018-07-16T12:54:18.219Z,2.70
2018-07-16T12:56:45.428Z,2.87
2018-07-16T12:59:12.549Z,2.92
2018-07-16T13:01:39.663Z,3.00
2018-07-16T13:04:06.825Z,2.85
2018-07-16T13:06:34.028Z,3.27
2018-07-16T13:09:01.178Z,3.33
2018-07-16T13:11:28.464Z,3.55
2018-07-16T13:13:55.587Z,3.65
2018-07-16T13:16:22.709Z,3.05
2018-07-16T13:18:49.842Z,2.92
2018-07-16T13:21:16.994Z,3.00
2018-07-16T13:23:44.141Z,2.62
2018-07-16T13:26:11.649Z,3.02
2018-07-16T13:28:38.908Z,3.30
2018-07-16T13:31:06.205Z,2.87
2018-07-16T13:33:33.493Z,3.00
2018-07-16T13:36:00.654Z,3.47
2018-07-16T13:38:27.803Z,3.00
2018-07-16T13:40:54.955Z,2.60
2018-07-16T13:43:22.070Z,2.77
2018-07-16T13:45:49.186Z,2.60
2018-07-16T13:48:16.299Z,3.17
2018-07-16T13:50:43.438Z,3.27
2018-07-16T13:53:10.746Z,3.17
2018-07-16T13:55:37.877Z,3.25
2018-07-16T13:58:05.103Z,3.00
2018-07-16T14:00:32.549Z,3.02
2018-07-16T14:02:59.936Z,2.87
2018-07-16T14:05:27.243Z,2.90
2018-07-16T14:07:54.386Z,2.60
2018-07-16T14:10:21.640Z,3.00
2018-07-16T14:12:48.862Z,2.75
2018-07-16T14:15:16.012Z,3.00
2018-07-16T14:17:43.132Z,2.30
2018-07-16T14:20:10.318Z,2.62
2018-07-16T14:22:37.483Z,2.52
2018-07-16T14:25:04.708Z,2.83
2018-07-16T14:27:31.923Z,3.10
2018-07-16T14:29:59.054Z,3.05
2018-07-16T14:32:26.202Z,2.45
2018-07-16T14:34:53.377Z,2.98
2018-07-16T14:37:20.500Z,3.12
2018-07-16T14:39:47.722Z,3.22
2018-07-16T14:42:14.768Z,3.08
2018-07-16T14:44:41.942Z,2.65
2018-07-16T14:47:09.132Z,2.70
2018-07-16T14:49:36.410Z,2.67
2018-07-16T14:52:03.757Z,2.47
2018-07-16T14:54:30.958Z,2.50
2018-07-16T14:56:58.123Z,3.10
2018-07-16T14:59:25.303Z,2.72
2018-07-16T15:01:52.479Z,2.92
2018-07-16T15:04:19.602Z,2.50
2018-07-16T15:06:46.718Z,2.30
2018-07-16T15:09:13.835Z,2.27
2018-07-16T15:11:41.294Z,2.55
2018-07-16T15:14:08.425Z,2.12
2018-07-16T15:16:35.672Z,2.58
2018-07-16T15:19:03.114Z,2.40
2018-07-16T15:21:30.482Z,2.50
2018-07-16T15:23:57.470Z,3.00
2018-07-16T15:26:24.602Z,2.72
2018-07-16T15:28:51.733Z,2.80
2018-07-16T15:31:18.927Z,2.87
2018-07-16T15:33:46.049Z,2.70
2018-07-16T15:36:13.166Z,3.00
2018-07-16T15:38:40.305Z,2.92
2018-07-16T15:41:07.491Z,2.55
2018-07-16T15:43:34.877Z,2.50
2018-07-16T15:46:02.055Z,2.77
2018-07-16T15:48:29.231Z,2.60
2018-07-16T15:50:56.735Z,2.40
2018-07-16T15:53:23.848Z,2.40
2018-07-16T15:55:51.038Z,2.98
2018-07-16T15:58:18.154Z,2.47
2018-07-16T16:00:45.270Z,2.60
2018-07-16T16:03:12.437Z,2.42
2018-07-16T16:05:39.645Z,2.40
2018-07-16T16:08:06.861Z,2.45
2018-07-16T16:10:34.165Z,2.35
2018-07-16T16:13:01.578Z,2.35
2018-07-16T16:15:28.646Z,2.60
2018-07-16T16:17:55.799Z,2.60
2018-07-16T16:20:22.954Z,2.30
2018-07-16T16:22:50.105Z,2.58
2018-07-16T16:25:17.206Z,2.12
2018-07-16T16:27:44.341Z,2.20
2018-07-16T16:30:11.486Z,2.30
2018-07-16T16:32:38.705Z,2.20
2018-07-16T16:35:05.888Z,2.83
2018-07-16T16:37:33.137Z,2.52
2018-07-16T16:40:00.452Z,2.60
2018-07-16T16:42:27.635Z,2.52
2018-07-16T16:44:54.773Z,2.90
2018-07-16T16:47:21.910Z,2.70
2018-07-16T16:49:49.372Z,2.72
2018-07-16T16:52:16.594Z,2.58
2018-07-16T16:54:43.750Z,2.60
2018-07-16T16:57:10.938Z,2.52
2018-07-16T16:59:38.104Z,2.50
2018-07-16T17:02:05.305Z,2.70
2018-07-16T17:04:32.473Z,2.90
2018-07-16T17:06:59.709Z,2.72
2018-07-16T17:09:26.854Z,2.83
2018-07-16T17:11:54.014Z,2.90
2018-07-16T17:14:21.381Z,2.58
2018-07-16T17:16:48.556Z,2.87
2018-07-16T17:19:15.758Z,2.77
2018-07-16T17:21:42.943Z,2.72
2018-07-16T17:24:10.126Z,3.47
2018-07-16T17:26:37.325Z,3.30
2018-07-16T17:29:04.689Z,3.20
2018-07-16T17:31:31.922Z,2.60
2018-07-16T17:33:59.099Z,2.60
2018-07-16T17:36:26.256Z,3.02
2018-07-16T17:38:53.389Z,3.02
2018-07-16T17:41:20.534Z,2.42
2018-07-16T17:43:47.698Z,2.58
2018-07-16T17:46:14.862Z,2.70
2018-07-16T17:48:42.014Z,2.42
2018-07-16T17:51:09.227Z,1.92
2018-07-16T17:53:36.540Z,2.52
2018-07-16T17:56:03.866Z,2.90
2018-07-16T17:58:31.026Z,3.08
2018-07-16T18:00:58.178Z,2.50
2018-07-16T18:03:25.335Z,3.15
2018-07-16T18:05:52.512Z,2.92
2018-07-16T18:08:19.674Z,2.67
2018-07-16T18:10:46.810Z,3.10
2018-07-16T18:13:14.099Z,2.70
2018-07-16T18:15:41.388Z,2.70
2018-07-16T18:18:08.654Z,3.17
2018-07-16T18:20:35.928Z,2.50
2018-07-16T18:23:03.230Z,2.58
2018-07-16T18:25:30.539Z,2.83
2018-07-16T18:27:57.687Z,3.40
2018-07-16T18:30:24.950Z,2.27
2018-07-16T18:32:53.379Z,2.70
2018-07-16T18:35:20.813Z,3.05
2018-07-16T18:37:48.137Z,2.90
2018-07-16T18:40:15.311Z,3.17
2018-07-16T18:42:42.479Z,3.20
2018-07-16T18:45:09.698Z,3.12
2018-07-16T18:47:37.142Z,2.42
2018-07-16T18:50:05.509Z,2.47
2018-07-16T18:52:32.851Z,3.62
2018-07-16T18:55:00.084Z,3.02
2018-07-16T18:57:27.263Z,3.37
2018-07-16T18:59:54.418Z,3.42
2018-07-16T19:02:21.576Z,3.77
2018-07-16T19:04:48.751Z,3.40
2018-07-16T19:07:15.922Z,3.70
2018-07-16T19:09:43.141Z,3.37
2018-07-16T19:12:10.342Z,3.58
2018-07-16T19:14:37.589Z,3.60
2018-07-16T19:17:05.406Z,3.90
2018-07-16T19:19:32.690Z,4.12
2018-07-16T19:22:00.091Z,3.77
2018-07-16T19:24:27.384Z,3.40
2018-07-16T19:26:54.539Z,3.42
2018-07-16T19:29:21.641Z,3.10
2018-07-16T19:31:48.774Z,2.80
2018-07-16T19:34:15.946Z,3.42
2018-07-16T19:36:43.111Z,3.37
2018-07-16T19:39:11.082Z,3.42
2018-07-16T19:41:38.150Z,3.45
2018-07-16T19:44:05.487Z,3.58
2018-07-16T19:46:32.712Z,3.27
2018-07-16T19:48:59.917Z,3.17
2018-07-16T19:51:27.319Z,3.13
2018-07-16T19:53:54.510Z,3.47
2018-07-16T19:56:21.742Z,4.33
2018-07-16T19:58:48.879Z,2.93
2018-07-16T20:01:16.048Z,2.70
2018-07-16T20:03:43.918Z,3.27
2018-07-16T20:06:11.081Z,3.30
2018-07-16T20:08:38.197Z,3.05
2018-07-16T20:11:05.965Z,3.30
2018-07-16T20:13:33.271Z,3.20
2018-07-16T20:16:00.494Z,3.23
2018-07-16T20:18:27.678Z,3.30
2018-07-16T20:20:57.080Z,3.43
2018-07-16T20:23:24.165Z,3.10
2018-07-16T20:25:52.962Z,3.23
2018-07-16T20:28:20.210Z,3.27
2018-07-16T20:30:47.566Z,3.50
2018-07-16T20:33:14.734Z,3.40
2018-07-16T20:35:42.202Z,3.27
2018-07-16T20:38:14.652Z,3.63
2018-07-16T20:40:41.817Z,2.73
2018-07-16T20:43:08.957Z,2.60
2018-07-16T20:45:36.270Z,2.87
2018-07-16T20:48:03.442Z,3.37
2018-07-16T20:50:30.805Z,2.93
2018-07-16T20:52:58.493Z,3.00
2018-07-16T20:55:25.614Z,2.60
2018-07-16T20:57:52.756Z,2.93
2018-07-16T21:00:20.082Z,2.80
2018-07-16T21:02:47.247Z,2.83
2018-07-16T21:05:14.393Z,2.70
2018-07-16T21:07:41.711Z,3.20
2018-07-16T21:10:08.886Z,3.50
2018-07-16T21:12:36.098Z,3.17
2018-07-16T21:15:03.485Z,3.37
2018-07-16T21:17:30.792Z,3.17
2018-07-16T21:19:58.035Z,3.70
2018-07-16T21:22:25.220Z,3.20
2018-07-16T21:24:52.414Z,3.07
2018-07-16T21:27:19.580Z,2.70
2018-07-16T21:29:46.869Z,2.73
2018-07-16T21:32:13.983Z,3.00
2018-07-16T21:34:41.397Z,2.77
2018-07-16T21:37:08.668Z,2.53
2018-07-16T21:39:35.978Z,3.27
2018-07-16T21:42:03.209Z,3.00
2018-07-16T21:44:30.637Z,2.80
2018-07-16T21:46:57.745Z,2.97
2018-07-16T21:49:24.902Z,2.77
2018-07-16T21:51:52.038Z,2.60
2018-07-16T21:54:19.153Z,2.73
2018-07-16T21:56:46.381Z,2.87
2018-07-16T21:59:13.535Z,2.80
2018-07-16T22:01:40.706Z,2.83
2018-07-16T22:04:08.241Z,3.00
2018-07-16T22:06:35.429Z,3.20
2018-07-16T22:09:02.906Z,3.37
2018-07-16T22:11:30.202Z,2.70
2018-07-16T22:13:57.395Z,2.73
2018-07-16T22:16:24.543Z,2.80
2018-07-16T22:18:51.759Z,2.70
2018-07-16T22:21:19.314Z,2.37
2018-07-16T22:23:46.430Z,2.43
2018-07-16T22:26:13.635Z,2.50
2018-07-16T22:28:41.443Z,2.87
2018-07-16T22:31:08.574Z,2.43
2018-07-16T22:33:35.767Z,2.90
2018-07-16T22:36:03.007Z,3.43
2018-07-16T22:38:30.218Z,3.30
2018-07-16T22:40:57.402Z,2.90
2018-07-16T22:43:24.531Z,3.23
2018-07-16T22:45:51.851Z,3.00
2018-07-16T22:48:18.977Z,2.80
2018-07-16T22:50:46.149Z,3.00
2018-07-16T22:53:13.583Z,2.80
2018-07-16T22:55:40.694Z,2.53
2018-07-16T22:58:07.830Z,3.43
2018-07-16T23:00:35.083Z,2.27
2018-07-16T23:03:02.346Z,3.00
2018-07-16T23:05:29.501Z,3.03
2018-07-16T23:07:56.643Z,2.63
2018-07-16T23:10:23.753Z,2.57
2018-07-16T23:12:50.900Z,3.20
2018-07-16T23:15:18.028Z,3.17
2018-07-16T23:17:45.171Z,2.70
2018-07-16T23:20:13.186Z,2.73
2018-07-16T23:22:48.974Z,2.70
2018-07-16T23:25:16.110Z,2.67
2018-07-16T23:27:43.229Z,3.00
2018-07-16T23:30:10.333Z,2.90
2018-07-16T23:32:37.461Z,2.60
2018-07-16T23:35:04.802Z,2.77
2018-07-16T23:37:32.024Z,2.93
2018-07-16T23:39:59.124Z,2.97
2018-07-16T23:42:26.249Z,3.03
2018-07-16T23:44:53.367Z,3.07
2018-07-16T23:47:20.571Z,2.97
2018-07-16T23:49:47.670Z,2.80
2018-07-16T23:52:14.862Z,2.77
2018-07-16T23:54:42.002Z,2.83
2018-07-16T23:57:09.203Z,3.60
2018-07-16T23:59:36.371Z,2.77
